KLAN/LAN METAR and TAF weather

Enter ICAO airport designator
Station Type Date Time Source
KLAN METAR 2019/10/20 18:53 UTC NOAA

KLAN 201853Z 30007KT 10SM FEW036 18/09 A2989 RMK AO2 SLP123 T01830094 $


Station Type Date Time Source
KLAN Decoded METAR 2019/10/20 18:53 UTC NOAA

CAPITAL CITY AIRPORT, MI, United States (KLAN) 42-47N 084-35W 264M
Oct 20, 2019 - 02:53 PM EDT / 2019.10.20 1853 UTC
Wind: from the WNW (300 degrees) at 8 MPH (7 KT):0
Visibility: 10 mile(s):0
Sky conditions: mostly clear
Temperature: 64.9 F (18.3 C)
Dew Point: 48.9 F (9.4 C)
Relative Humidity: 56%
Pressure (altimeter): 29.89 in. Hg (1012 hPa)
ob: KLAN 201853Z 30007KT 10SM FEW036 18/09 A2989 RMK AO2 SLP123 T01830094
cycle: 19

Station Type Date Time Source
KLAN TAF 2019/10/20 18:42 UTC NOAA

TAF KLAN 201740Z 2018/2118 31004KT P6SM SCT080
FM211400 14012KT P6SM OVC030
FM211700 14016G24KT P6SM OVC025

Example: see airport list